Dallas, OR

10:40 PM PDT on September 16, 2014 (GMT -0700)
City View | Change Station
CLOSE
Current Station
Personal Weather Station
Location: Dallas, OR
Elevation: 435 ft
Nearby Weather Stations

Elev 435 ft 44.92 °N, 123.33 °W | Updated 0 second ago

Partly Cloudy
Partly Cloudy
63.8 °F
Feels Like 63.8 °F
N
0.0
Wind Variable Wind from WSW
Gusts 0.0 mph

Today
High -- | Low -- °F
--% Chance of Precip.
Yesterday
High -- | Low -- °F
Precip. -- in
6:53 AM 7:22 PM
Last Quarter, 39% visible
Pressure 29.83 in
Visibility 10.0 miles
Clouds Clear
Dew Point 55 °F
Humidity 74%
Rainfall 0.00 in
Snow Depth 0 in , 1 in , 0 in
UV 0 out of 12
Pollen 2.20 out of 12
Air Quality Not available.
Flu Activity Not available.
METAR KSLE 170456Z AUTO 31007KT 10SM CLR 20/12 A2983 RMK AO2 SLP100 T02000122

More Conditions Fewer Conditions

Pressure 29.83 in
Visibility 10.0 miles
Clouds Clear
Dew Point 55 °F
Humidity 74%
Rainfall 0.00 in
Snow Depth 0 in , 1 in , 0 in
UV 0 out of 12
Pollen 2.20 out of 12
Air Quality Not available.
Flu Activity Not available.
METAR KSLE 170456Z AUTO 31007KT 10SM CLR 20/12 A2983 RMK AO2 SLP100 T02000122

More Conditions Fewer Conditions

10-Day Weather Forecast

Almanac

Astronomy

Sep. 16, 2014 Rise Set
Actual Time 6:53 AM PDT 7:22 PM PDT
Civil Twilight 6:23 AM PDT 7:51 PM PDT
Nautical Twilight 5:49 AM PDT 8:26 PM PDT
Astronomical Twilight 5:13 AM PDT 9:01 PM PDT
Moon No Moon Rise 3:01 PM PDT (9/16)
Length of Visible Light 13h 27m
Length of Day
12h 28m
Tomorrow will be 3m 7s shorter.
Last Quarter, 39% of the Moon is Illuminated
Sep 17
Last Quarter
Sep 24
New
Oct 1
First Quarter
Oct 8
Full
Oct 15
Last Quarter

Yesterday's Extremes

State Highs State Lows

Community

WunderPhotos

Upload Photos

1,753,968 photos uploaded!

Nearby

Snow Depth

Station Depth Elevation
Holland Meadows 0 in 4900 ft
Fourmile Lake 1 in 6000 ft
Sevenmile Marsh 0 in 6200 ft
Fish Creek 0 in 7900 ft
Strawberry 0 in 5760 ft

Earthquake Activity

City Distance Mag. Time & Date
Morton, Washington 107 miles 3.0 5:43 AM PDT
2014-09-16
Minimum magnitude displayed is 2.5.

Coastal Water Temperatures

Place Temperature
No Stations Reporting

Nearby Weather Stations